sensor_id;sensor_type;location;lat;lon;timestamp;pressure;altitude;pressure_sealevel;temperature;humidity
15489;BME280;7846;48.830;9.116;2023-03-16T00:01:56;98246.09;;;4.11;73.36
15489;BME280;7846;48.830;9.116;2023-03-16T00:04:21;98250.59;;;4.09;73.56
15489;BME280;7846;48.830;9.116;2023-03-16T00:06:46;98243.72;;;4.08;73.88
15489;BME280;7846;48.830;9.116;2023-03-16T00:09:12;98236.81;;;4.07;74.08
15489;BME280;7846;48.830;9.116;2023-03-16T00:11:39;98237.91;;;4.05;73.49
15489;BME280;7846;48.830;9.116;2023-03-16T00:14:04;98238.81;;;4.04;73.14
15489;BME280;7846;48.830;9.116;2023-03-16T00:16:30;98240.59;;;4.03;73.60
15489;BME280;7846;48.830;9.116;2023-03-16T00:18:55;98243.19;;;4.03;73.80
15489;BME280;7846;48.830;9.116;2023-03-16T00:21:23;98241.41;;;4.04;73.77
15489;BME280;7846;48.830;9.116;2023-03-16T00:23:49;98241.84;;;3.98;73.20
15489;BME280;7846;48.830;9.116;2023-03-16T00:26:15;98237.47;;;3.98;73.04
15489;BME280;7846;48.830;9.116;2023-03-16T00:28:42;98237.28;;;4.01;74.08
15489;BME280;7846;48.830;9.116;2023-03-16T00:31:09;98237.78;;;4.06;73.84
15489;BME280;7846;48.830;9.116;2023-03-16T00:33:39;98241.66;;;4.01;73.99
15489;BME280;7846;48.830;9.116;2023-03-16T00:36:07;98249.75;;;3.96;73.77
15489;BME280;7846;48.830;9.116;2023-03-16T00:38:35;98247.47;;;4.04;73.58
15489;BME280;7846;48.830;9.116;2023-03-16T00:41:05;98251.75;;;4.05;73.93
15489;BME280;7846;48.830;9.116;2023-03-16T00:43:34;98250.28;;;4.01;73.36
15489;BME280;7846;48.830;9.116;2023-03-16T00:46:11;98245.59;;;4.06;73.69
15489;BME280;7846;48.830;9.116;2023-03-16T00:48:39;98246.94;;;3.99;73.73
15489;BME280;7846;48.830;9.116;2023-03-16T00:51:07;98237.47;;;3.98;73.53
15489;BME280;7846;48.830;9.116;2023-03-16T00:53:35;98242.69;;;3.98;73.90
15489;BME280;7846;48.830;9.116;2023-03-16T00:56:03;98239.47;;;3.95;73.93
15489;BME280;7846;48.830;9.116;2023-03-16T00:58:32;98239.13;;;3.99;73.56
15489;BME280;7846;48.830;9.116;2023-03-16T01:01:12;98240.91;;;3.99;73.84
15489;BME280;7846;48.830;9.116;2023-03-16T01:03:39;98242.47;;;3.88;73.58
15489;BME280;7846;48.830;9.116;2023-03-16T01:06:07;98245.50;;;3.95;73.31
15489;BME280;7846;48.830;9.116;2023-03-16T01:08:35;98232.38;;;3.84;73.05
15489;BME280;7846;48.830;9.116;2023-03-16T01:11:05;98232.59;;;3.94;73.64
15489;BME280;7846;48.830;9.116;2023-03-16T01:13:31;98237.59;;;3.84;73.73
15489;BME280;7846;48.830;9.116;2023-03-16T01:15:57;98235.81;;;3.84;73.83
15489;BME280;7846;48.830;9.116;2023-03-16T01:18:22;98230.19;;;3.78;73.30
15489;BME280;7846;48.830;9.116;2023-03-16T01:20:48;98225.28;;;3.73;73.02
15489;BME280;7846;48.830;9.116;2023-03-16T01:23:16;98225.72;;;3.80;73.33
15489;BME280;7846;48.830;9.116;2023-03-16T01:25:42;98234.69;;;3.76;72.88
15489;BME280;7846;48.830;9.116;2023-03-16T01:28:08;98217.09;;;3.79;73.16
15489;BME280;7846;48.830;9.116;2023-03-16T01:30:33;98231.44;;;3.72;73.90
15489;BME280;7846;48.830;9.116;2023-03-16T01:32:59;98223.97;;;3.68;73.75
15489;BME280;7846;48.830;9.116;2023-03-16T01:35:25;98228.41;;;3.66;74.21
15489;BME280;7846;48.830;9.116;2023-03-16T01:37:50;98225.09;;;3.63;74.00
15489;BME280;7846;48.830;9.116;2023-03-16T01:40:17;98226.84;;;3.63;73.83
15489;BME280;7846;48.830;9.116;2023-03-16T01:42:59;98223.31;;;3.77;74.32
15489;BME280;7846;48.830;9.116;2023-03-16T01:48:28;98220.72;;;3.64;74.32
15489;BME280;7846;48.830;9.116;2023-03-16T01:51:02;98222.38;;;3.65;74.38
15489;BME280;7846;48.830;9.116;2023-03-16T01:53:29;98213.97;;;3.61;73.83
15489;BME280;7846;48.830;9.116;2023-03-16T01:55:58;98209.25;;;3.67;74.55
15489;BME280;7846;48.830;9.116;2023-03-16T01:58:27;98215.84;;;3.72;73.73
15489;BME280;7846;48.830;9.116;2023-03-16T02:00:53;98206.88;;;3.63;73.96
15489;BME280;7846;48.830;9.116;2023-03-16T02:03:19;98208.63;;;3.63;74.11
15489;BME280;7846;48.830;9.116;2023-03-16T02:05:50;98203.84;;;3.70;74.21
15489;BME280;7846;48.830;9.116;2023-03-16T02:08:19;98204.78;;;3.69;74.09
15489;BME280;7846;48.830;9.116;2023-03-16T02:10:47;98195.63;;;3.63;74.23
15489;BME280;7846;48.830;9.116;2023-03-16T02:13:13;98190.72;;;3.58;73.76
15489;BME280;7846;48.830;9.116;2023-03-16T02:15:38;98191.03;;;3.67;74.02
15489;BME280;7846;48.830;9.116;2023-03-16T02:18:06;98193.56;;;3.68;73.75
15489;BME280;7846;48.830;9.116;2023-03-16T02:20:42;98182.06;;;3.71;74.22
15489;BME280;7846;48.830;9.116;2023-03-16T02:23:14;98190.44;;;3.76;73.76
15489;BME280;7846;48.830;9.116;2023-03-16T02:28:37;98198.44;;;3.73;74.11
15489;BME280;7846;48.830;9.116;2023-03-16T02:31:09;98196.56;;;3.36;75.19
15489;BME280;7846;48.830;9.116;2023-03-16T02:33:37;98195.91;;;3.20;76.76
15489;BME280;7846;48.830;9.116;2023-03-16T02:36:03;98193.88;;;3.38;76.69
15489;BME280;7846;48.830;9.116;2023-03-16T02:38:29;98193.00;;;3.63;75.28
15489;BME280;7846;48.830;9.116;2023-03-16T02:41:00;98185.72;;;3.81;74.69
15489;BME280;7846;48.830;9.116;2023-03-16T02:43:35;98194.06;;;3.48;74.76
15489;BME280;7846;48.830;9.116;2023-03-16T02:46:02;98186.06;;;3.38;75.36
15489;BME280;7846;48.830;9.116;2023-03-16T02:48:43;98181.78;;;3.37;75.33
15489;BME280;7846;48.830;9.116;2023-03-16T02:51:10;98180.50;;;3.04;76.16
15489;BME280;7846;48.830;9.116;2023-03-16T02:53:36;98185.84;;;3.15;75.80
15489;BME280;7846;48.830;9.116;2023-03-16T02:56:03;98180.03;;;2.85;78.25
15489;BME280;7846;48.830;9.116;2023-03-16T02:58:30;98181.41;;;3.03;78.34
15489;BME280;7846;48.830;9.116;2023-03-16T03:00:56;98170.63;;;3.22;76.46
15489;BME280;7846;48.830;9.116;2023-03-16T03:03:22;98174.81;;;3.25;75.80
15489;BME280;7846;48.830;9.116;2023-03-16T03:05:48;98174.09;;;3.23;75.98
15489;BME280;7846;48.830;9.116;2023-03-16T03:08:14;98175.31;;;3.04;76.57
15489;BME280;7846;48.830;9.116;2023-03-16T03:10:39;98167.50;;;3.17;76.21
15489;BME280;7846;48.830;9.116;2023-03-16T03:13:05;98174.78;;;3.12;76.81
15489;BME280;7846;48.830;9.116;2023-03-16T03:15:33;98181.63;;;3.00;77.76
15489;BME280;7846;48.830;9.116;2023-03-16T03:17:59;98176.50;;;2.86;79.17
15489;BME280;7846;48.830;9.116;2023-03-16T03:20:24;98180.13;;;3.23;78.18
15489;BME280;7846;48.830;9.116;2023-03-16T03:22:50;98171.69;;;3.20;77.26
15489;BME280;7846;48.830;9.116;2023-03-16T03:25:18;98174.91;;;3.36;75.92
15489;BME280;7846;48.830;9.116;2023-03-16T03:27:45;98154.59;;;3.41;75.23
15489;BME280;7846;48.830;9.116;2023-03-16T03:30:14;98148.06;;;3.35;74.69
15489;BME280;7846;48.830;9.116;2023-03-16T03:32:40;98159.19;;;3.25;74.75
15489;BME280;7846;48.830;9.116;2023-03-16T03:35:06;98150.13;;;3.18;75.23
15489;BME280;7846;48.830;9.116;2023-03-16T03:37:32;98158.06;;;3.16;75.14
15489;BME280;7846;48.830;9.116;2023-03-16T03:39:58;98150.25;;;3.16;75.79
15489;BME280;7846;48.830;9.116;2023-03-16T03:42:24;98152.09;;;3.14;75.69
15489;BME280;7846;48.830;9.116;2023-03-16T03:44:50;98156.72;;;3.23;75.74
15489;BME280;7846;48.830;9.116;2023-03-16T03:47:16;98156.59;;;3.25;75.46
15489;BME280;7846;48.830;9.116;2023-03-16T03:49:41;98148.91;;;3.23;74.91
15489;BME280;7846;48.830;9.116;2023-03-16T03:52:06;98147.44;;;3.19;75.39
15489;BME280;7846;48.830;9.116;2023-03-16T03:54:32;98147.44;;;3.19;74.93
15489;BME280;7846;48.830;9.116;2023-03-16T03:56:57;98150.75;;;3.21;74.85
15489;BME280;7846;48.830;9.116;2023-03-16T03:59:23;98149.00;;;3.22;74.66
15489;BME280;7846;48.830;9.116;2023-03-16T04:01:49;98137.97;;;3.18;74.68
15489;BME280;7846;48.830;9.116;2023-03-16T04:04:18;98136.41;;;3.15;75.06
15489;BME280;7846;48.830;9.116;2023-03-16T04:06:43;98144.72;;;3.21;74.60
15489;BME280;7846;48.830;9.116;2023-03-16T04:09:10;98154.50;;;3.17;74.56
15489;BME280;7846;48.830;9.116;2023-03-16T04:11:36;98144.09;;;3.17;74.67
15489;BME280;7846;48.830;9.116;2023-03-16T04:14:01;98146.06;;;3.13;74.87
15489;BME280;7846;48.830;9.116;2023-03-16T04:16:26;98147.94;;;3.11;74.93
15489;BME280;7846;48.830;9.116;2023-03-16T04:18:53;98143.59;;;3.12;74.84
15489;BME280;7846;48.830;9.116;2023-03-16T04:21:21;98143.47;;;3.13;75.13
15489;BME280;7846;48.830;9.116;2023-03-16T04:23:47;98145.34;;;3.11;75.04
15489;BME280;7846;48.830;9.116;2023-03-16T04:26:13;98131.31;;;3.14;74.28
15489;BME280;7846;48.830;9.116;2023-03-16T04:28:39;98140.75;;;3.15;74.17
15489;BME280;7846;48.830;9.116;2023-03-16T04:31:07;98130.69;;;3.23;74.17
15489;BME280;7846;48.830;9.116;2023-03-16T04:33:34;98126.72;;;3.18;74.66
15489;BME280;7846;48.830;9.116;2023-03-16T04:35:59;98132.25;;;3.13;74.19
15489;BME280;7846;48.830;9.116;2023-03-16T04:38:27;98121.22;;;3.09;74.24
15489;BME280;7846;48.830;9.116;2023-03-16T04:40:52;98119.31;;;3.11;74.46
15489;BME280;7846;48.830;9.116;2023-03-16T04:43:18;98128.00;;;3.12;73.82
15489;BME280;7846;48.830;9.116;2023-03-16T04:45:43;98123.41;;;3.15;73.46
15489;BME280;7846;48.830;9.116;2023-03-16T04:48:08;98122.66;;;3.13;74.18
15489;BME280;7846;48.830;9.116;2023-03-16T04:50:34;98126.22;;;3.12;74.35
15489;BME280;7846;48.830;9.116;2023-03-16T04:53:00;98116.97;;;3.08;73.97
15489;BME280;7846;48.830;9.116;2023-03-16T04:55:25;98130.69;;;3.10;74.21
15489;BME280;7846;48.830;9.116;2023-03-16T04:57:51;98126.94;;;3.14;74.16
15489;BME280;7846;48.830;9.116;2023-03-16T05:00:17;98124.13;;;3.18;74.27
15489;BME280;7846;48.830;9.116;2023-03-16T05:02:44;98132.13;;;3.14;74.84
15489;BME280;7846;48.830;9.116;2023-03-16T05:05:09;98122.66;;;3.13;73.77
15489;BME280;7846;48.830;9.116;2023-03-16T05:07:38;98122.97;;;3.22;74.83
15489;BME280;7846;48.830;9.116;2023-03-16T05:10:06;98121.94;;;3.11;74.74
15489;BME280;7846;48.830;9.116;2023-03-16T05:12:31;98122.56;;;3.02;74.88
15489;BME280;7846;48.830;9.116;2023-03-16T05:14:57;98127.25;;;3.10;74.25
15489;BME280;7846;48.830;9.116;2023-03-16T05:17:22;98128.81;;;3.12;74.58
15489;BME280;7846;48.830;9.116;2023-03-16T05:19:48;98121.00;;;3.12;74.72
15489;BME280;7846;48.830;9.116;2023-03-16T05:22:13;98119.31;;;3.11;74.73
15489;BME280;7846;48.830;9.116;2023-03-16T05:24:38;98124.44;;;3.13;74.62
15489;BME280;7846;48.830;9.116;2023-03-16T05:27:06;98114.13;;;3.11;74.66
15489;BME280;7846;48.830;9.116;2023-03-16T05:29:31;98117.66;;;3.10;74.62
15489;BME280;7846;48.830;9.116;2023-03-16T05:31:57;98114.88;;;3.13;74.47
15489;BME280;7846;48.830;9.116;2023-03-16T05:34:23;98115.06;;;3.10;74.47
15489;BME280;7846;48.830;9.116;2023-03-16T05:36:49;98119.31;;;3.11;74.69
15489;BME280;7846;48.830;9.116;2023-03-16T05:39:14;98118.28;;;3.14;74.91
15489;BME280;7846;48.830;9.116;2023-03-16T05:41:39;98117.16;;;3.18;74.87
15489;BME280;7846;48.830;9.116;2023-03-16T05:44:07;98109.88;;;3.23;74.88
15489;BME280;7846;48.830;9.116;2023-03-16T05:46:32;98113.94;;;3.27;74.51
15489;BME280;7846;48.830;9.116;2023-03-16T05:48:58;98111.53;;;3.24;74.42
15489;BME280;7846;48.830;9.116;2023-03-16T05:51:25;98109.56;;;3.28;74.15
15489;BME280;7846;48.830;9.116;2023-03-16T05:53:51;98103.22;;;3.32;74.46
15489;BME280;7846;48.830;9.116;2023-03-16T05:56:22;98104.88;;;3.33;74.63
15489;BME280;7846;48.830;9.116;2023-03-16T05:58:48;98102.06;;;3.36;74.15
15489;BME280;7846;48.830;9.116;2023-03-16T06:01:13;98099.38;;;3.37;74.33
15489;BME280;7846;48.830;9.116;2023-03-16T06:03:39;98093.22;;;3.38;74.31
15489;BME280;7846;48.830;9.116;2023-03-16T06:06:06;98091.16;;;3.31;75.00
15489;BME280;7846;48.830;9.116;2023-03-16T06:08:31;98097.91;;;3.46;74.45
15489;BME280;7846;48.830;9.116;2023-03-16T06:10:57;98099.97;;;3.54;74.01
15489;BME280;7846;48.830;9.116;2023-03-16T06:13:23;98104.34;;;3.53;74.10
15489;BME280;7846;48.830;9.116;2023-03-16T06:15:48;98107.88;;;3.65;74.69
15489;BME280;7846;48.830;9.116;2023-03-16T06:18:14;98108.97;;;3.74;74.15
15489;BME280;7846;48.830;9.116;2023-03-16T06:20:40;98099.72;;;3.70;74.34
15489;BME280;7846;48.830;9.116;2023-03-16T06:23:06;98104.53;;;3.76;74.40
15489;BME280;7846;48.830;9.116;2023-03-16T06:25:31;98108.44;;;3.94;74.14
15489;BME280;7846;48.830;9.116;2023-03-16T06:27:57;98096.72;;;4.00;74.59
15489;BME280;7846;48.830;9.116;2023-03-16T06:30:23;98104.72;;;4.09;74.46
15489;BME280;7846;48.830;9.116;2023-03-16T06:32:49;98110.44;;;4.15;74.41
15489;BME280;7846;48.830;9.116;2023-03-16T06:35:16;98113.22;;;4.24;74.14
15489;BME280;7846;48.830;9.116;2023-03-16T06:37:44;98109.72;;;4.36;74.32
15489;BME280;7846;48.830;9.116;2023-03-16T06:40:10;98103.72;;;4.47;74.47
15489;BME280;7846;48.830;9.116;2023-03-16T06:42:36;98118.31;;;4.50;74.21
15489;BME280;7846;48.830;9.116;2023-03-16T06:45:01;98108.59;;;4.52;73.99
15489;BME280;7846;48.830;9.116;2023-03-16T06:47:28;98109.03;;;4.70;73.76
15489;BME280;7846;48.830;9.116;2023-03-16T06:49:54;98108.38;;;4.79;73.42
15489;BME280;7846;48.830;9.116;2023-03-16T06:52:20;98114.44;;;4.91;73.90
15489;BME280;7846;48.830;9.116;2023-03-16T06:54:46;98115.66;;;4.98;73.55
15489;BME280;7846;48.830;9.116;2023-03-16T06:57:12;98112.66;;;4.91;73.59
15489;BME280;7846;48.830;9.116;2023-03-16T06:59:38;98114.72;;;5.10;74.23
15489;BME280;7846;48.830;9.116;2023-03-16T07:02:03;98109.50;;;5.21;73.07
15489;BME280;7846;48.830;9.116;2023-03-16T07:04:30;98117.94;;;5.25;72.79
15489;BME280;7846;48.830;9.116;2023-03-16T07:06:56;98115.56;;;5.33;73.42
15489;BME280;7846;48.830;9.116;2023-03-16T07:09:22;98118.09;;;5.46;73.46
15489;BME280;7846;48.830;9.116;2023-03-16T07:11:47;98121.53;;;5.46;73.20
15489;BME280;7846;48.830;9.116;2023-03-16T07:14:12;98115.00;;;5.52;72.91
15489;BME280;7846;48.830;9.116;2023-03-16T07:16:38;98117.88;;;5.71;72.93
15489;BME280;7846;48.830;9.116;2023-03-16T07:19:03;98119.63;;;5.82;73.27
15489;BME280;7846;48.830;9.116;2023-03-16T07:21:30;98123.09;;;5.71;73.46
15489;BME280;7846;48.830;9.116;2023-03-16T07:24:03;98121.28;;;5.83;73.09
15489;BME280;7846;48.830;9.116;2023-03-16T07:26:29;98121.09;;;5.97;72.92
15489;BME280;7846;48.830;9.116;2023-03-16T07:28:54;98129.47;;;6.23;73.15
15489;BME280;7846;48.830;9.116;2023-03-16T07:31:20;98123.53;;;6.10;71.80
15489;BME280;7846;48.830;9.116;2023-03-16T07:33:45;98129.88;;;6.40;72.38
15489;BME280;7846;48.830;9.116;2023-03-16T07:36:10;98117.69;;;6.61;71.64
15489;BME280;7846;48.830;9.116;2023-03-16T07:38:36;98125.25;;;6.75;71.50
15489;BME280;7846;48.830;9.116;2023-03-16T07:41:01;98127.91;;;6.85;71.82
15489;BME280;7846;48.830;9.116;2023-03-16T07:43:27;98131.81;;;6.70;71.63
15489;BME280;7846;48.830;9.116;2023-03-16T07:45:53;98129.28;;;6.79;71.48
15489;BME280;7846;48.830;9.116;2023-03-16T07:48:20;98124.31;;;6.97;70.98
15489;BME280;7846;48.830;9.116;2023-03-16T07:50:46;98134.50;;;6.47;71.70
15489;BME280;7846;48.830;9.116;2023-03-16T07:53:12;98133.81;;;6.45;71.41
15489;BME280;7846;48.830;9.116;2023-03-16T07:55:38;98132.81;;;6.90;71.50
15489;BME280;7846;48.830;9.116;2023-03-16T07:58:05;98131.63;;;7.03;70.82
15489;BME280;7846;48.830;9.116;2023-03-16T08:00:31;98123.63;;;7.16;69.84
15489;BME280;7846;48.830;9.116;2023-03-16T08:02:56;98125.19;;;6.87;71.57
15489;BME280;7846;48.830;9.116;2023-03-16T08:05:22;98124.94;;;7.11;70.38
15489;BME280;7846;48.830;9.116;2023-03-16T08:07:47;98120.72;;;7.40;70.88
15489;BME280;7846;48.830;9.116;2023-03-16T08:10:13;98122.78;;;7.16;70.27
15489;BME280;7846;48.830;9.116;2023-03-16T08:12:38;98126.41;;;7.24;69.41
15489;BME280;7846;48.830;9.116;2023-03-16T08:15:05;98124.03;;;7.42;69.33
15489;BME280;7846;48.830;9.116;2023-03-16T08:17:31;98125.59;;;7.24;68.80
15489;BME280;7846;48.830;9.116;2023-03-16T08:19:56;98120.63;;;7.51;69.16
15489;BME280;7846;48.830;9.116;2023-03-16T08:22:22;98122.28;;;7.83;68.73
15489;BME280;7846;48.830;9.116;2023-03-16T08:24:48;98117.25;;;8.11;68.62
15489;BME280;7846;48.830;9.116;2023-03-16T08:27:14;98118.81;;;8.33;67.69
15489;BME280;7846;48.830;9.116;2023-03-16T08:29:40;98116.75;;;8.36;67.74
15489;BME280;7846;48.830;9.116;2023-03-16T08:32:05;98118.59;;;8.75;66.64
15489;BME280;7846;48.830;9.116;2023-03-16T08:34:31;98113.88;;;8.49;66.17
15489;BME280;7846;48.830;9.116;2023-03-16T08:36:56;98110.88;;;8.54;66.51
15489;BME280;7846;48.830;9.116;2023-03-16T08:39:21;98103.25;;;8.89;66.72
15489;BME280;7846;48.830;9.116;2023-03-16T08:41:47;98104.09;;;9.00;66.25
15489;BME280;7846;48.830;9.116;2023-03-16T08:44:12;98093.59;;;8.41;65.05
15489;BME280;7846;48.830;9.116;2023-03-16T08:46:38;98091.97;;;8.79;64.12
15489;BME280;7846;48.830;9.116;2023-03-16T08:49:04;98091.75;;;9.19;64.03
15489;BME280;7846;48.830;9.116;2023-03-16T08:51:31;98094.50;;;9.28;63.55
15489;BME280;7846;48.830;9.116;2023-03-16T08:53:58;98095.34;;;9.28;63.11
15489;BME280;7846;48.830;9.116;2023-03-16T08:56:24;98091.59;;;9.31;63.66
15489;BME280;7846;48.830;9.116;2023-03-16T08:58:49;98089.81;;;9.31;62.91
15489;BME280;7846;48.830;9.116;2023-03-16T09:01:16;98090.28;;;9.44;62.80
15489;BME280;7846;48.830;9.116;2023-03-16T09:06:17;98097.78;;;10.04;61.72
15489;BME280;7846;48.830;9.116;2023-03-16T09:13:50;98081.91;;;9.68;59.21
15489;BME280;7846;48.830;9.116;2023-03-16T09:16:15;98083.94;;;10.30;61.19
15489;BME280;7846;48.830;9.116;2023-03-16T09:18:42;98081.16;;;10.49;59.75
15489;BME280;7846;48.830;9.116;2023-03-16T09:21:09;98077.34;;;10.26;57.60
15489;BME280;7846;48.830;9.116;2023-03-16T09:23:37;98070.06;;;10.55;58.38
15489;BME280;7846;48.830;9.116;2023-03-16T09:26:04;98067.00;;;10.86;58.53
15489;BME280;7846;48.830;9.116;2023-03-16T09:28:32;98063.47;;;11.21;57.59
15489;BME280;7846;48.830;9.116;2023-03-16T09:30:59;98070.41;;;10.78;56.04
15489;BME280;7846;48.830;9.116;2023-03-16T09:33:26;98076.31;;;10.54;54.53
15489;BME280;7846;48.830;9.116;2023-03-16T09:35:56;98084.06;;;11.00;55.78
15489;BME280;7846;48.830;9.116;2023-03-16T09:38:23;98075.16;;;11.19;55.14
15489;BME280;7846;48.830;9.116;2023-03-16T09:40:57;98070.69;;;11.45;54.80
15489;BME280;7846;48.830;9.116;2023-03-16T09:43:38;98060.78;;;11.39;54.46
15489;BME280;7846;48.830;9.116;2023-03-16T09:46:16;98050.63;;;11.52;53.85
15489;BME280;7846;48.830;9.116;2023-03-16T09:48:46;98046.34;;;11.85;52.90
15489;BME280;7846;48.830;9.116;2023-03-16T09:51:21;98044.00;;;12.33;52.17
15489;BME280;7846;48.830;9.116;2023-03-16T09:53:49;98044.13;;;12.15;51.78
15489;BME280;7846;48.830;9.116;2023-03-16T09:56:25;98047.50;;;12.50;51.59
15489;BME280;7846;48.830;9.116;2023-03-16T09:58:51;98044.44;;;12.12;51.63
15489;BME280;7846;48.830;9.116;2023-03-16T10:04:10;98040.88;;;12.78;51.00
15489;BME280;7846;48.830;9.116;2023-03-16T10:06:52;98046.34;;;12.85;50.16
15489;BME280;7846;48.830;9.116;2023-03-16T10:09:37;98034.09;;;13.08;50.03
15489;BME280;7846;48.830;9.116;2023-03-16T10:12:06;98032.16;;;12.53;49.34
15489;BME280;7846;48.830;9.116;2023-03-16T10:14:48;98045.34;;;12.62;50.65
15489;BME280;7846;48.830;9.116;2023-03-16T10:19:58;98052.78;;;12.99;50.08
15489;BME280;7846;48.830;9.116;2023-03-16T10:22:29;98046.72;;;13.62;50.50
15489;BME280;7846;48.830;9.116;2023-03-16T10:27:46;98025.03;;;12.95;48.70
15489;BME280;7846;48.830;9.116;2023-03-16T10:30:22;98019.66;;;13.44;49.74
15489;BME280;7846;48.830;9.116;2023-03-16T10:32:50;98020.94;;;13.56;49.27
15489;BME280;7846;48.830;9.116;2023-03-16T10:35:50;98024.72;;;13.62;48.01
15489;BME280;7846;48.830;9.116;2023-03-16T10:38:27;98020.31;;;13.46;48.46
15489;BME280;7846;48.830;9.116;2023-03-16T10:40:53;98015.72;;;13.40;48.73
15489;BME280;7846;48.830;9.116;2023-03-16T10:43:18;98022.78;;;13.87;49.69
15489;BME280;7846;48.830;9.116;2023-03-16T10:45:44;98016.28;;;13.66;47.47
15489;BME280;7846;48.830;9.116;2023-03-16T10:48:13;98014.72;;;13.80;47.50
15489;BME280;7846;48.830;9.116;2023-03-16T10:50:41;98007.09;;;13.46;47.00
15489;BME280;7846;48.830;9.116;2023-03-16T10:53:17;98004.19;;;14.03;48.03
15489;BME280;7846;48.830;9.116;2023-03-16T10:55:46;97995.22;;;14.35;46.95
15489;BME280;7846;48.830;9.116;2023-03-16T10:58:22;97996.25;;;14.72;46.63
15489;BME280;7846;48.830;9.116;2023-03-16T11:00:49;97999.31;;;14.61;46.66
15489;BME280;7846;48.830;9.116;2023-03-16T11:03:24;97994.84;;;14.84;44.90
15489;BME280;7846;48.830;9.116;2023-03-16T11:05:58;97998.50;;;14.98;45.90
15489;BME280;7846;48.830;9.116;2023-03-16T11:08:26;98004.16;;;14.80;44.41
15489;BME280;7846;48.830;9.116;2023-03-16T11:11:08;98006.53;;;13.98;44.62
15489;BME280;7846;48.830;9.116;2023-03-16T11:13:37;97995.59;;;14.01;45.90
15489;BME280;7846;48.830;9.116;2023-03-16T11:16:38;97996.94;;;14.51;45.83
15489;BME280;7846;48.830;9.116;2023-03-16T11:19:18;98001.41;;;14.50;44.23
15489;BME280;7846;48.830;9.116;2023-03-16T11:24:47;97983.25;;;15.30;44.47
15489;BME280;7846;48.830;9.116;2023-03-16T11:27:29;97988.19;;;15.47;43.50
15489;BME280;7846;48.830;9.116;2023-03-16T11:30:01;97974.94;;;15.18;41.60
15489;BME280;7846;48.830;9.116;2023-03-16T11:32:37;97975.97;;;15.83;42.98
15489;BME280;7846;48.830;9.116;2023-03-16T11:35:16;97973.28;;;15.97;41.71
15489;BME280;7846;48.830;9.116;2023-03-16T11:38:04;97981.88;;;15.48;41.17
15489;BME280;7846;48.830;9.116;2023-03-16T11:40:52;97970.31;;;15.86;41.38
15489;BME280;7846;48.830;9.116;2023-03-16T11:43:40;97973.06;;;15.78;43.24
15489;BME280;7846;48.830;9.116;2023-03-16T11:46:32;97968.31;;;15.88;41.10
15489;BME280;7846;48.830;9.116;2023-03-16T11:54:55;97948.91;;;17.08;39.77
15489;BME280;7846;48.830;9.116;2023-03-16T11:57:51;97946.78;;;17.31;40.32
15489;BME280;7846;48.830;9.116;2023-03-16T12:00:44;97934.41;;;17.52;39.50
15489;BME280;7846;48.830;9.116;2023-03-16T12:11:27;97922.53;;;17.13;40.16
15489;BME280;7846;48.830;9.116;2023-03-16T12:19:19;97921.53;;;18.43;38.54
15489;BME280;7846;48.830;9.116;2023-03-16T12:21:56;97932.22;;;17.21;38.04
15489;BME280;7846;48.830;9.116;2023-03-16T12:24:28;97931.75;;;16.54;38.26
15489;BME280;7846;48.830;9.116;2023-03-16T12:26:58;97927.03;;;17.12;39.77
15489;BME280;7846;48.830;9.116;2023-03-16T12:29:33;97933.31;;;17.94;38.71
15489;BME280;7846;48.830;9.116;2023-03-16T12:32:18;97913.50;;;18.83;37.32
15489;BME280;7846;48.830;9.116;2023-03-16T12:34:58;97912.28;;;19.50;36.63
15489;BME280;7846;48.830;9.116;2023-03-16T12:37:40;97917.72;;;19.30;36.87
15489;BME280;7846;48.830;9.116;2023-03-16T12:46:13;97907.34;;;18.49;37.05
15489;BME280;7846;48.830;9.116;2023-03-16T12:48:48;97908.00;;;18.58;37.26
15489;BME280;7846;48.830;9.116;2023-03-16T12:51:16;97894.00;;;18.96;35.93
15489;BME280;7846;48.830;9.116;2023-03-16T12:56:14;97894.03;;;18.89;36.41
15489;BME280;7846;48.830;9.116;2023-03-16T12:58:48;97889.72;;;18.88;36.08
15489;BME280;7846;48.830;9.116;2023-03-16T13:01:17;97880.66;;;20.24;35.32
15489;BME280;7846;48.830;9.116;2023-03-16T13:03:49;97881.16;;;20.64;35.20
15489;BME280;7846;48.830;9.116;2023-03-16T13:06:16;97879.97;;;21.40;33.55
15489;BME280;7846;48.830;9.116;2023-03-16T13:08:47;97884.94;;;22.15;33.37
15489;BME280;7846;48.830;9.116;2023-03-16T13:11:15;97882.56;;;22.07;32.35
15489;BME280;7846;48.830;9.116;2023-03-16T13:14:05;97891.84;;;21.93;30.70
15489;BME280;7846;48.830;9.116;2023-03-16T13:16:40;97888.41;;;21.86;32.46
15489;BME280;7846;48.830;9.116;2023-03-16T13:21:43;97882.00;;;20.08;33.70
15489;BME280;7846;48.830;9.116;2023-03-16T13:24:13;97878.53;;;20.08;33.28
15489;BME280;7846;48.830;9.116;2023-03-16T13:26:41;97874.63;;;20.60;33.79
15489;BME280;7846;48.830;9.116;2023-03-16T13:29:19;97868.47;;;20.28;33.53
15489;BME280;7846;48.830;9.116;2023-03-16T13:31:46;97865.50;;;20.68;33.65
15489;BME280;7846;48.830;9.116;2023-03-16T13:34:14;97860.69;;;20.76;34.18
15489;BME280;7846;48.830;9.116;2023-03-16T13:36:43;97869.94;;;20.49;34.25
15489;BME280;7846;48.830;9.116;2023-03-16T13:39:17;97863.69;;;20.12;33.87
15489;BME280;7846;48.830;9.116;2023-03-16T13:42:02;97856.53;;;20.99;34.44
15489;BME280;7846;48.830;9.116;2023-03-16T13:44:29;97851.78;;;19.76;33.65
15489;BME280;7846;48.830;9.116;2023-03-16T13:46:55;97861.81;;;20.12;33.66
15489;BME280;7846;48.830;9.116;2023-03-16T13:49:21;97851.00;;;20.94;33.95
15489;BME280;7846;48.830;9.116;2023-03-16T13:51:47;97854.41;;;20.64;33.18
15489;BME280;7846;48.830;9.116;2023-03-16T13:54:25;97844.25;;;19.59;34.25
15489;BME280;7846;48.830;9.116;2023-03-16T13:56:55;97842.97;;;21.49;33.01
15489;BME280;7846;48.830;9.116;2023-03-16T13:59:21;97844.66;;;23.33;31.51
15489;BME280;7846;48.830;9.116;2023-03-16T14:01:47;97843.91;;;23.78;30.04
15489;BME280;7846;48.830;9.116;2023-03-16T14:04:14;97843.47;;;23.69;30.23
15489;BME280;7846;48.830;9.116;2023-03-16T14:06:57;97836.53;;;23.45;27.94
15489;BME280;7846;48.830;9.116;2023-03-16T14:09:27;97834.88;;;24.85;28.08
15489;BME280;7846;48.830;9.116;2023-03-16T14:11:55;97830.91;;;24.37;29.76
15489;BME280;7846;48.830;9.116;2023-03-16T14:14:37;97832.63;;;25.43;28.68
15489;BME280;7846;48.830;9.116;2023-03-16T14:17:23;97818.94;;;24.83;27.78
15489;BME280;7846;48.830;9.116;2023-03-16T14:19:51;97820.09;;;23.01;30.95
15489;BME280;7846;48.830;9.116;2023-03-16T14:22:22;97813.19;;;23.62;29.71